sensor_id;sensor_type;location;lat;lon;timestamp;P1;durP1;ratioP1;P2;durP2;ratioP2
80930;SDS011;70388;42.698;23.324;2024-02-14T00:02:17;11.20;;;6.28;;
80930;SDS011;70388;42.698;23.324;2024-02-14T00:04:43;9.63;;;6.68;;
80930;SDS011;70388;42.698;23.324;2024-02-14T00:07:09;11.30;;;6.93;;
80930;SDS011;70388;42.698;23.324;2024-02-14T00:09:34;10.95;;;7.82;;
80930;SDS011;70388;42.698;23.324;2024-02-14T00:12:00;10.05;;;6.18;;
80930;SDS011;70388;42.698;23.324;2024-02-14T00:14:26;9.55;;;6.50;;
80930;SDS011;70388;42.698;23.324;2024-02-14T00:16:52;11.23;;;7.18;;
80930;SDS011;70388;42.698;23.324;2024-02-14T00:19:17;10.45;;;6.70;;
80930;SDS011;70388;42.698;23.324;2024-02-14T00:21:43;9.90;;;6.22;;
80930;SDS011;70388;42.698;23.324;2024-02-14T00:24:09;10.25;;;7.00;;
80930;SDS011;70388;42.698;23.324;2024-02-14T00:26:36;13.63;;;7.68;;
80930;SDS011;70388;42.698;23.324;2024-02-14T00:29:04;11.75;;;6.90;;
80930;SDS011;70388;42.698;23.324;2024-02-14T00:31:30;9.40;;;6.50;;
80930;SDS011;70388;42.698;23.324;2024-02-14T00:33:55;10.75;;;6.72;;
80930;SDS011;70388;42.698;23.324;2024-02-14T00:36:21;12.13;;;6.80;;
80930;SDS011;70388;42.698;23.324;2024-02-14T00:38:47;10.05;;;6.72;;
80930;SDS011;70388;42.698;23.324;2024-02-14T00:41:13;12.20;;;7.15;;
80930;SDS011;70388;42.698;23.324;2024-02-14T00:43:38;13.73;;;6.25;;
80930;SDS011;70388;42.698;23.324;2024-02-14T00:46:04;12.60;;;6.85;;
80930;SDS011;70388;42.698;23.324;2024-02-14T00:48:31;10.93;;;6.90;;
80930;SDS011;70388;42.698;23.324;2024-02-14T00:50:57;10.93;;;6.93;;
80930;SDS011;70388;42.698;23.324;2024-02-14T00:53:24;12.02;;;7.28;;
80930;SDS011;70388;42.698;23.324;2024-02-14T00:55:50;9.68;;;6.82;;
80930;SDS011;70388;42.698;23.324;2024-02-14T00:58:16;12.63;;;7.47;;
80930;SDS011;70388;42.698;23.324;2024-02-14T01:00:42;18.15;;;9.27;;
80930;SDS011;70388;42.698;23.324;2024-02-14T01:03:08;10.80;;;7.22;;
80930;SDS011;70388;42.698;23.324;2024-02-14T01:05:37;14.15;;;8.25;;
80930;SDS011;70388;42.698;23.324;2024-02-14T01:08:04;12.85;;;7.65;;
80930;SDS011;70388;42.698;23.324;2024-02-14T01:10:30;10.82;;;6.32;;
80930;SDS011;70388;42.698;23.324;2024-02-14T01:12:55;11.40;;;7.70;;
80930;SDS011;70388;42.698;23.324;2024-02-14T01:15:22;11.85;;;6.57;;
80930;SDS011;70388;42.698;23.324;2024-02-14T01:17:47;11.60;;;7.57;;
80930;SDS011;70388;42.698;23.324;2024-02-14T01:20:13;12.43;;;7.85;;
80930;SDS011;70388;42.698;23.324;2024-02-14T01:22:40;13.48;;;8.20;;
80930;SDS011;70388;42.698;23.324;2024-02-14T01:25:06;11.40;;;8.30;;
80930;SDS011;70388;42.698;23.324;2024-02-14T01:27:32;12.20;;;6.85;;
80930;SDS011;70388;42.698;23.324;2024-02-14T01:29:58;15.25;;;8.98;;
80930;SDS011;70388;42.698;23.324;2024-02-14T01:32:24;12.57;;;7.75;;
80930;SDS011;70388;42.698;23.324;2024-02-14T01:34:51;12.80;;;7.10;;
80930;SDS011;70388;42.698;23.324;2024-02-14T01:37:17;10.48;;;7.18;;
80930;SDS011;70388;42.698;23.324;2024-02-14T01:39:43;10.40;;;7.25;;
80930;SDS011;70388;42.698;23.324;2024-02-14T01:42:08;13.40;;;8.65;;
80930;SDS011;70388;42.698;23.324;2024-02-14T01:44:34;11.77;;;7.68;;
80930;SDS011;70388;42.698;23.324;2024-02-14T01:47:01;12.93;;;6.72;;
80930;SDS011;70388;42.698;23.324;2024-02-14T01:49:27;14.13;;;8.10;;
80930;SDS011;70388;42.698;23.324;2024-02-14T01:51:53;12.30;;;7.85;;
80930;SDS011;70388;42.698;23.324;2024-02-14T01:54:23;13.32;;;7.80;;
80930;SDS011;70388;42.698;23.324;2024-02-14T01:56:50;10.63;;;8.40;;
80930;SDS011;70388;42.698;23.324;2024-02-14T01:59:18;15.73;;;8.38;;
80930;SDS011;70388;42.698;23.324;2024-02-14T02:01:44;13.20;;;7.90;;
80930;SDS011;70388;42.698;23.324;2024-02-14T02:04:09;13.27;;;9.07;;
80930;SDS011;70388;42.698;23.324;2024-02-14T02:06:35;12.02;;;8.13;;
80930;SDS011;70388;42.698;23.324;2024-02-14T02:09:02;12.13;;;7.68;;
80930;SDS011;70388;42.698;23.324;2024-02-14T02:11:28;13.55;;;8.65;;
80930;SDS011;70388;42.698;23.324;2024-02-14T02:13:54;14.30;;;8.68;;
80930;SDS011;70388;42.698;23.324;2024-02-14T02:16:20;14.07;;;8.85;;
80930;SDS011;70388;42.698;23.324;2024-02-14T02:18:47;12.23;;;8.13;;
80930;SDS011;70388;42.698;23.324;2024-02-14T02:21:14;13.13;;;8.45;;
80930;SDS011;70388;42.698;23.324;2024-02-14T02:23:39;12.88;;;9.18;;
80930;SDS011;70388;42.698;23.324;2024-02-14T02:26:10;14.40;;;8.68;;
80930;SDS011;70388;42.698;23.324;2024-02-14T02:28:36;12.00;;;7.47;;
80930;SDS011;70388;42.698;23.324;2024-02-14T02:31:04;12.50;;;8.40;;
80930;SDS011;70388;42.698;23.324;2024-02-14T02:33:30;12.70;;;8.15;;
80930;SDS011;70388;42.698;23.324;2024-02-14T02:35:56;12.45;;;8.30;;
80930;SDS011;70388;42.698;23.324;2024-02-14T02:38:23;14.43;;;8.52;;
80930;SDS011;70388;42.698;23.324;2024-02-14T02:40:48;14.52;;;8.90;;
80930;SDS011;70388;42.698;23.324;2024-02-14T02:43:14;13.77;;;8.65;;
80930;SDS011;70388;42.698;23.324;2024-02-14T02:45:40;15.00;;;8.93;;
80930;SDS011;70388;42.698;23.324;2024-02-14T02:48:07;12.38;;;9.00;;
80930;SDS011;70388;42.698;23.324;2024-02-14T02:50:33;12.93;;;8.45;;
80930;SDS011;70388;42.698;23.324;2024-02-14T02:52:59;13.32;;;8.93;;
80930;SDS011;70388;42.698;23.324;2024-02-14T02:55:24;14.10;;;7.25;;
80930;SDS011;70388;42.698;23.324;2024-02-14T02:57:51;13.68;;;8.60;;
80930;SDS011;70388;42.698;23.324;2024-02-14T03:00:17;14.10;;;8.07;;
80930;SDS011;70388;42.698;23.324;2024-02-14T03:02:46;14.82;;;8.60;;
80930;SDS011;70388;42.698;23.324;2024-02-14T03:05:12;15.32;;;9.02;;
80930;SDS011;70388;42.698;23.324;2024-02-14T03:07:48;15.90;;;9.25;;
80930;SDS011;70388;42.698;23.324;2024-02-14T03:10:15;12.50;;;8.25;;
80930;SDS011;70388;42.698;23.324;2024-02-14T03:12:44;14.60;;;8.63;;
80930;SDS011;70388;42.698;23.324;2024-02-14T03:15:12;14.07;;;8.48;;
80930;SDS011;70388;42.698;23.324;2024-02-14T03:17:38;13.02;;;9.07;;
80930;SDS011;70388;42.698;23.324;2024-02-14T03:20:05;14.75;;;8.93;;
80930;SDS011;70388;42.698;23.324;2024-02-14T03:22:49;15.43;;;9.15;;
80930;SDS011;70388;42.698;23.324;2024-02-14T03:25:18;15.02;;;9.00;;
80930;SDS011;70388;42.698;23.324;2024-02-14T03:27:45;13.68;;;8.13;;
80930;SDS011;70388;42.698;23.324;2024-02-14T03:30:17;15.18;;;9.98;;
80930;SDS011;70388;42.698;23.324;2024-02-14T03:32:43;14.07;;;8.82;;
80930;SDS011;70388;42.698;23.324;2024-02-14T03:35:10;14.57;;;9.20;;
80930;SDS011;70388;42.698;23.324;2024-02-14T03:37:38;15.27;;;9.68;;
80930;SDS011;70388;42.698;23.324;2024-02-14T03:40:06;14.48;;;9.25;;
80930;SDS011;70388;42.698;23.324;2024-02-14T03:42:32;15.45;;;8.90;;
80930;SDS011;70388;42.698;23.324;2024-02-14T03:44:59;14.68;;;9.27;;
80930;SDS011;70388;42.698;23.324;2024-02-14T03:47:33;17.42;;;9.57;;
80930;SDS011;70388;42.698;23.324;2024-02-14T03:50:00;16.75;;;9.63;;
80930;SDS011;70388;42.698;23.324;2024-02-14T03:52:27;16.15;;;9.77;;
80930;SDS011;70388;42.698;23.324;2024-02-14T03:54:52;14.48;;;8.98;;
80930;SDS011;70388;42.698;23.324;2024-02-14T03:57:18;12.93;;;8.43;;
80930;SDS011;70388;42.698;23.324;2024-02-14T03:59:44;13.68;;;9.23;;
80930;SDS011;70388;42.698;23.324;2024-02-14T04:02:11;15.35;;;9.23;;
80930;SDS011;70388;42.698;23.324;2024-02-14T04:04:40;16.92;;;10.27;;
80930;SDS011;70388;42.698;23.324;2024-02-14T04:07:07;14.82;;;9.65;;
80930;SDS011;70388;42.698;23.324;2024-02-14T04:09:33;15.45;;;10.00;;
80930;SDS011;70388;42.698;23.324;2024-02-14T04:11:59;12.60;;;8.23;;
80930;SDS011;70388;42.698;23.324;2024-02-14T04:14:25;16.08;;;9.60;;
80930;SDS011;70388;42.698;23.324;2024-02-14T04:16:51;15.90;;;9.95;;
80930;SDS011;70388;42.698;23.324;2024-02-14T04:19:17;15.65;;;10.18;;
80930;SDS011;70388;42.698;23.324;2024-02-14T04:21:43;16.73;;;9.57;;
80930;SDS011;70388;42.698;23.324;2024-02-14T04:24:09;17.63;;;10.32;;
80930;SDS011;70388;42.698;23.324;2024-02-14T04:26:35;16.27;;;9.88;;
80930;SDS011;70388;42.698;23.324;2024-02-14T04:29:01;18.33;;;10.02;;
80930;SDS011;70388;42.698;23.324;2024-02-14T04:31:27;16.45;;;9.73;;
80930;SDS011;70388;42.698;23.324;2024-02-14T04:33:55;16.75;;;10.32;;
80930;SDS011;70388;42.698;23.324;2024-02-14T04:36:21;17.55;;;11.20;;
80930;SDS011;70388;42.698;23.324;2024-02-14T04:38:49;15.85;;;9.80;;
80930;SDS011;70388;42.698;23.324;2024-02-14T04:41:16;16.27;;;10.57;;
80930;SDS011;70388;42.698;23.324;2024-02-14T04:43:42;16.48;;;9.60;;
80930;SDS011;70388;42.698;23.324;2024-02-14T04:46:08;16.88;;;9.93;;
80930;SDS011;70388;42.698;23.324;2024-02-14T04:48:34;16.05;;;9.95;;
80930;SDS011;70388;42.698;23.324;2024-02-14T04:51:02;18.67;;;10.48;;
80930;SDS011;70388;42.698;23.324;2024-02-14T04:53:28;21.52;;;11.75;;
80930;SDS011;70388;42.698;23.324;2024-02-14T04:55:54;18.25;;;10.38;;
80930;SDS011;70388;42.698;23.324;2024-02-14T04:58:20;16.77;;;12.00;;
80930;SDS011;70388;42.698;23.324;2024-02-14T05:00:46;15.82;;;10.27;;
80930;SDS011;70388;42.698;23.324;2024-02-14T05:03:12;17.35;;;10.95;;
80930;SDS011;70388;42.698;23.324;2024-02-14T05:05:37;17.52;;;11.30;;
80930;SDS011;70388;42.698;23.324;2024-02-14T05:08:03;20.23;;;12.38;;
80930;SDS011;70388;42.698;23.324;2024-02-14T05:10:30;19.65;;;10.80;;
80930;SDS011;70388;42.698;23.324;2024-02-14T05:12:56;17.10;;;10.95;;
80930;SDS011;70388;42.698;23.324;2024-02-14T05:15:22;20.55;;;11.57;;
80930;SDS011;70388;42.698;23.324;2024-02-14T05:17:49;15.23;;;12.02;;
80930;SDS011;70388;42.698;23.324;2024-02-14T05:20:15;20.20;;;12.20;;
80930;SDS011;70388;42.698;23.324;2024-02-14T05:22:44;18.38;;;10.88;;
80930;SDS011;70388;42.698;23.324;2024-02-14T05:25:09;19.83;;;12.88;;
80930;SDS011;70388;42.698;23.324;2024-02-14T05:27:36;17.13;;;10.90;;
80930;SDS011;70388;42.698;23.324;2024-02-14T05:30:02;19.35;;;11.43;;
80930;SDS011;70388;42.698;23.324;2024-02-14T05:32:32;20.73;;;12.32;;
80930;SDS011;70388;42.698;23.324;2024-02-14T05:34:58;20.48;;;12.35;;
80930;SDS011;70388;42.698;23.324;2024-02-14T05:37:24;17.27;;;11.02;;
80930;SDS011;70388;42.698;23.324;2024-02-14T05:39:52;17.60;;;11.65;;
80930;SDS011;70388;42.698;23.324;2024-02-14T05:42:18;19.88;;;12.63;;
80930;SDS011;70388;42.698;23.324;2024-02-14T05:44:44;25.85;;;13.07;;
80930;SDS011;70388;42.698;23.324;2024-02-14T05:47:10;19.05;;;11.40;;
80930;SDS011;70388;42.698;23.324;2024-02-14T05:49:38;19.25;;;11.88;;
80930;SDS011;70388;42.698;23.324;2024-02-14T05:52:05;20.38;;;13.13;;
80930;SDS011;70388;42.698;23.324;2024-02-14T05:54:31;19.73;;;12.07;;
80930;SDS011;70388;42.698;23.324;2024-02-14T05:56:57;19.52;;;12.50;;
80930;SDS011;70388;42.698;23.324;2024-02-14T05:59:22;22.85;;;13.15;;
80930;SDS011;70388;42.698;23.324;2024-02-14T06:01:48;20.45;;;10.82;;
80930;SDS011;70388;42.698;23.324;2024-02-14T06:04:14;19.40;;;10.73;;
80930;SDS011;70388;42.698;23.324;2024-02-14T06:06:40;21.13;;;12.60;;
80930;SDS011;70388;42.698;23.324;2024-02-14T06:09:06;18.75;;;12.90;;
80930;SDS011;70388;42.698;23.324;2024-02-14T06:11:37;20.38;;;12.00;;
80930;SDS011;70388;42.698;23.324;2024-02-14T06:14:07;22.30;;;12.88;;
80930;SDS011;70388;42.698;23.324;2024-02-14T06:16:34;18.45;;;11.77;;
80930;SDS011;70388;42.698;23.324;2024-02-14T06:19:00;20.77;;;11.65;;
80930;SDS011;70388;42.698;23.324;2024-02-14T06:21:26;17.95;;;11.27;;
80930;SDS011;70388;42.698;23.324;2024-02-14T06:23:52;18.52;;;10.82;;
80930;SDS011;70388;42.698;23.324;2024-02-14T06:26:18;18.63;;;12.07;;
80930;SDS011;70388;42.698;23.324;2024-02-14T06:28:44;21.63;;;12.85;;
80930;SDS011;70388;42.698;23.324;2024-02-14T06:31:10;17.50;;;11.25;;
80930;SDS011;70388;42.698;23.324;2024-02-14T06:33:36;17.08;;;11.05;;
80930;SDS011;70388;42.698;23.324;2024-02-14T06:36:02;16.42;;;10.38;;
80930;SDS011;70388;42.698;23.324;2024-02-14T06:38:28;17.48;;;10.82;;
80930;SDS011;70388;42.698;23.324;2024-02-14T06:40:56;19.08;;;12.65;;
80930;SDS011;70388;42.698;23.324;2024-02-14T06:43:21;23.27;;;12.23;;
80930;SDS011;70388;42.698;23.324;2024-02-14T06:45:47;18.77;;;11.60;;
80930;SDS011;70388;42.698;23.324;2024-02-14T06:48:13;15.68;;;10.60;;
80930;SDS011;70388;42.698;23.324;2024-02-14T06:50:39;14.90;;;9.88;;
80930;SDS011;70388;42.698;23.324;2024-02-14T06:53:06;21.27;;;10.93;;
80930;SDS011;70388;42.698;23.324;2024-02-14T06:55:32;15.52;;;10.80;;
80930;SDS011;70388;42.698;23.324;2024-02-14T06:57:58;16.88;;;10.50;;
80930;SDS011;70388;42.698;23.324;2024-02-14T07:00:26;14.45;;;10.10;;
80930;SDS011;70388;42.698;23.324;2024-02-14T07:02:55;18.80;;;10.27;;
80930;SDS011;70388;42.698;23.324;2024-02-14T07:05:21;17.13;;;10.90;;
80930;SDS011;70388;42.698;23.324;2024-02-14T07:07:47;17.15;;;9.23;;
80930;SDS011;70388;42.698;23.324;2024-02-14T07:10:12;15.80;;;10.10;;
80930;SDS011;70388;42.698;23.324;2024-02-14T07:12:38;15.07;;;8.88;;
80930;SDS011;70388;42.698;23.324;2024-02-14T07:15:04;16.05;;;10.43;;
80930;SDS011;70388;42.698;23.324;2024-02-14T07:17:31;13.98;;;9.60;;
80930;SDS011;70388;42.698;23.324;2024-02-14T07:19:57;14.88;;;9.75;;
80930;SDS011;70388;42.698;23.324;2024-02-14T07:22:23;12.68;;;8.52;;
80930;SDS011;70388;42.698;23.324;2024-02-14T07:24:49;16.70;;;10.38;;
80930;SDS011;70388;42.698;23.324;2024-02-14T07:27:15;20.25;;;10.43;;
80930;SDS011;70388;42.698;23.324;2024-02-14T07:29:43;15.80;;;10.30;;
80930;SDS011;70388;42.698;23.324;2024-02-14T07:32:09;19.42;;;10.43;;
80930;SDS011;70388;42.698;23.324;2024-02-14T07:34:38;18.48;;;9.82;;
80930;SDS011;70388;42.698;23.324;2024-02-14T07:37:05;18.85;;;10.70;;
80930;SDS011;70388;42.698;23.324;2024-02-14T07:39:31;12.82;;;9.02;;
80930;SDS011;70388;42.698;23.324;2024-02-14T07:41:56;16.02;;;10.45;;
80930;SDS011;70388;42.698;23.324;2024-02-14T07:44:22;18.25;;;10.25;;
80930;SDS011;70388;42.698;23.324;2024-02-14T07:46:51;14.52;;;9.23;;
80930;SDS011;70388;42.698;23.324;2024-02-14T07:49:18;13.40;;;9.00;;
80930;SDS011;70388;42.698;23.324;2024-02-14T07:51:44;14.32;;;9.07;;
80930;SDS011;70388;42.698;23.324;2024-02-14T07:54:10;12.98;;;7.95;;
80930;SDS011;70388;42.698;23.324;2024-02-14T07:56:36;13.77;;;9.02;;
80930;SDS011;70388;42.698;23.324;2024-02-14T07:59:02;13.70;;;8.25;;
80930;SDS011;70388;42.698;23.324;2024-02-14T08:01:29;11.63;;;8.43;;
80930;SDS011;70388;42.698;23.324;2024-02-14T08:03:56;17.60;;;9.73;;
80930;SDS011;70388;42.698;23.324;2024-02-14T08:06:21;15.93;;;10.23;;
80930;SDS011;70388;42.698;23.324;2024-02-14T08:08:47;12.52;;;8.55;;
80930;SDS011;70388;42.698;23.324;2024-02-14T08:11:16;15.75;;;9.48;;
80930;SDS011;70388;42.698;23.324;2024-02-14T08:13:42;12.10;;;7.97;;
80930;SDS011;70388;42.698;23.324;2024-02-14T08:16:08;13.13;;;8.82;;
80930;SDS011;70388;42.698;23.324;2024-02-14T08:18:34;13.75;;;8.50;;
80930;SDS011;70388;42.698;23.324;2024-02-14T08:21:00;15.23;;;8.63;;
80930;SDS011;70388;42.698;23.324;2024-02-14T08:23:26;10.73;;;7.95;;
80930;SDS011;70388;42.698;23.324;2024-02-14T08:25:51;15.80;;;10.25;;
80930;SDS011;70388;42.698;23.324;2024-02-14T08:28:17;11.77;;;8.15;;
80930;SDS011;70388;42.698;23.324;2024-02-14T08:30:43;14.48;;;8.55;;
80930;SDS011;70388;42.698;23.324;2024-02-14T08:33:09;14.35;;;8.65;;
80930;SDS011;70388;42.698;23.324;2024-02-14T08:35:36;12.48;;;8.25;;
80930;SDS011;70388;42.698;23.324;2024-02-14T08:38:01;13.23;;;8.35;;
80930;SDS011;70388;42.698;23.324;2024-02-14T08:40:27;12.90;;;8.68;;
80930;SDS011;70388;42.698;23.324;2024-02-14T08:42:53;14.07;;;8.40;;
80930;SDS011;70388;42.698;23.324;2024-02-14T08:45:19;16.08;;;9.57;;
80930;SDS011;70388;42.698;23.324;2024-02-14T08:47:45;14.55;;;9.10;;
80930;SDS011;70388;42.698;23.324;2024-02-14T08:50:11;14.45;;;9.18;;
80930;SDS011;70388;42.698;23.324;2024-02-14T08:52:36;13.23;;;7.65;;
80930;SDS011;70388;42.698;23.324;2024-02-14T08:55:06;12.25;;;7.88;;
80930;SDS011;70388;42.698;23.324;2024-02-14T09:00:06;15.85;;;8.65;;
80930;SDS011;70388;42.698;23.324;2024-02-14T09:02:32;15.77;;;8.60;;
80930;SDS011;70388;42.698;23.324;2024-02-14T09:05:00;12.95;;;8.88;;
80930;SDS011;70388;42.698;23.324;2024-02-14T09:07:26;15.23;;;9.27;;
80930;SDS011;70388;42.698;23.324;2024-02-14T09:09:52;16.52;;;9.32;;
80930;SDS011;70388;42.698;23.324;2024-02-14T09:12:18;10.75;;;7.93;;
80930;SDS011;70388;42.698;23.324;2024-02-14T09:14:43;13.50;;;8.02;;
80930;SDS011;70388;42.698;23.324;2024-02-14T09:17:09;12.13;;;8.48;;
80930;SDS011;70388;42.698;23.324;2024-02-14T09:19:35;14.65;;;9.00;;
80930;SDS011;70388;42.698;23.324;2024-02-14T09:22:01;13.43;;;10.43;;
80930;SDS011;70388;42.698;23.324;2024-02-14T09:24:31;28.90;;;14.38;;
80930;SDS011;70388;42.698;23.324;2024-02-14T09:26:57;80.80;;;35.00;;
80930;SDS011;70388;42.698;23.324;2024-02-14T09:29:24;23.90;;;13.70;;
80930;SDS011;70388;42.698;23.324;2024-02-14T09:31:50;32.22;;;16.33;;
80930;SDS011;70388;42.698;23.324;2024-02-14T09:34:16;26.60;;;14.38;;
80930;SDS011;70388;42.698;23.324;2024-02-14T09:36:44;44.85;;;24.88;;
80930;SDS011;70388;42.698;23.324;2024-02-14T09:39:13;29.05;;;16.98;;
80930;SDS011;70388;42.698;23.324;2024-02-14T09:41:42;22.27;;;13.98;;
80930;SDS011;70388;42.698;23.324;2024-02-14T09:44:12;17.50;;;12.18;;
80930;SDS011;70388;42.698;23.324;2024-02-14T09:46:38;22.60;;;15.50;;
80930;SDS011;70388;42.698;23.324;2024-02-14T09:49:05;16.17;;;10.80;;
80930;SDS011;70388;42.698;23.324;2024-02-14T09:51:34;13.50;;;9.57;;
80930;SDS011;70388;42.698;23.324;2024-02-14T09:54:01;16.38;;;9.32;;
80930;SDS011;70388;42.698;23.324;2024-02-14T09:56:29;13.35;;;8.45;;
80930;SDS011;70388;42.698;23.324;2024-02-14T09:58:56;13.73;;;8.57;;
80930;SDS011;70388;42.698;23.324;2024-02-14T10:01:25;17.10;;;9.07;;
80930;SDS011;70388;42.698;23.324;2024-02-14T10:03:52;14.75;;;10.27;;
80930;SDS011;70388;42.698;23.324;2024-02-14T10:06:21;14.00;;;9.68;;
80930;SDS011;70388;42.698;23.324;2024-02-14T10:08:48;17.50;;;10.95;;
80930;SDS011;70388;42.698;23.324;2024-02-14T10:11:16;13.75;;;8.60;;
80930;SDS011;70388;42.698;23.324;2024-02-14T10:13:45;12.50;;;7.88;;
80930;SDS011;70388;42.698;23.324;2024-02-14T10:16:13;12.77;;;8.02;;
80930;SDS011;70388;42.698;23.324;2024-02-14T10:18:39;14.77;;;8.40;;
80930;SDS011;70388;42.698;23.324;2024-02-14T10:21:05;16.52;;;8.07;;
80930;SDS011;70388;42.698;23.324;2024-02-14T10:23:33;11.65;;;8.30;;
80930;SDS011;70388;42.698;23.324;2024-02-14T10:25:59;14.90;;;8.82;;
80930;SDS011;70388;42.698;23.324;2024-02-14T10:28:25;18.27;;;11.50;;
80930;SDS011;70388;42.698;23.324;2024-02-14T10:30:51;13.88;;;8.95;;
80930;SDS011;70388;42.698;23.324;2024-02-14T10:33:19;11.15;;;8.48;;
80930;SDS011;70388;42.698;23.324;2024-02-14T10:35:45;11.75;;;7.35;;
80930;SDS011;70388;42.698;23.324;2024-02-14T10:38:14;10.45;;;7.25;;
80930;SDS011;70388;42.698;23.324;2024-02-14T10:40:43;13.07;;;9.27;;
80930;SDS011;70388;42.698;23.324;2024-02-14T10:43:12;11.15;;;7.95;;
80930;SDS011;70388;42.698;23.324;2024-02-14T10:45:39;17.75;;;9.48;;
80930;SDS011;70388;42.698;23.324;2024-02-14T10:48:05;12.25;;;8.48;;
80930;SDS011;70388;42.698;23.324;2024-02-14T10:50:35;17.50;;;9.13;;
80930;SDS011;70388;42.698;23.324;2024-02-14T10:53:04;13.27;;;8.32;;
80930;SDS011;70388;42.698;23.324;2024-02-14T10:55:31;18.00;;;9.88;;
80930;SDS011;70388;42.698;23.324;2024-02-14T10:57:59;18.55;;;11.07;;
80930;SDS011;70388;42.698;23.324;2024-02-14T11:00:26;14.23;;;8.77;;
80930;SDS011;70388;42.698;23.324;2024-02-14T11:02:53;11.98;;;8.32;;
80930;SDS011;70388;42.698;23.324;2024-02-14T11:05:19;12.63;;;8.55;;
80930;SDS011;70388;42.698;23.324;2024-02-14T11:07:49;13.38;;;8.32;;
80930;SDS011;70388;42.698;23.324;2024-02-14T11:10:18;13.98;;;8.88;;
80930;SDS011;70388;42.698;23.324;2024-02-14T11:12:46;14.98;;;7.45;;
80930;SDS011;70388;42.698;23.324;2024-02-14T11:15:20;14.10;;;8.85;;
80930;SDS011;70388;42.698;23.324;2024-02-14T11:20:19;13.15;;;8.82;;
80930;SDS011;70388;42.698;23.324;2024-02-14T11:22:53;13.27;;;8.55;;
80930;SDS011;70388;42.698;23.324;2024-02-14T11:25:23;14.27;;;9.40;;
80930;SDS011;70388;42.698;23.324;2024-02-14T11:27:55;11.65;;;9.15;;
80930;SDS011;70388;42.698;23.324;2024-02-14T11:30:31;15.80;;;9.73;;
80930;SDS011;70388;42.698;23.324;2024-02-14T11:33:33;15.05;;;9.05;;
80930;SDS011;70388;42.698;23.324;2024-02-14T11:35:53;14.75;;;8.60;;
80930;SDS011;70388;42.698;23.324;2024-02-14T11:38:20;12.15;;;8.48;;
80930;SDS011;70388;42.698;23.324;2024-02-14T11:40:48;13.77;;;7.78;;
80930;SDS011;70388;42.698;23.324;2024-02-14T11:43:18;16.25;;;10.25;;
80930;SDS011;70388;42.698;23.324;2024-02-14T11:45:45;20.63;;;12.82;;
80930;SDS011;70388;42.698;23.324;2024-02-14T11:48:14;13.82;;;11.07;;
80930;SDS011;70388;42.698;23.324;2024-02-14T11:50:42;17.30;;;11.38;;
80930;SDS011;70388;42.698;23.324;2024-02-14T11:53:12;13.63;;;9.20;;
80930;SDS011;70388;42.698;23.324;2024-02-14T11:55:41;16.37;;;10.07;;
80930;SDS011;70388;42.698;23.324;2024-02-14T12:00:38;16.30;;;8.88;;
80930;SDS011;70388;42.698;23.324;2024-02-14T12:03:09;15.63;;;8.73;;
80930;SDS011;70388;42.698;23.324;2024-02-14T12:05:46;12.02;;;8.73;;
80930;SDS011;70388;42.698;23.324;2024-02-14T12:08:15;16.40;;;9.68;;
80930;SDS011;70388;42.698;23.324;2024-02-14T12:10:43;17.95;;;8.68;;
80930;SDS011;70388;42.698;23.324;2024-02-14T12:13:13;15.95;;;9.38;;
80930;SDS011;70388;42.698;23.324;2024-02-14T12:15:46;17.02;;;11.85;;
80930;SDS011;70388;42.698;23.324;2024-02-14T12:18:13;15.52;;;9.65;;
80930;SDS011;70388;42.698;23.324;2024-02-14T12:20:41;11.65;;;8.55;;
80930;SDS011;70388;42.698;23.324;2024-02-14T12:23:13;15.27;;;7.82;;
80930;SDS011;70388;42.698;23.324;2024-02-14T12:25:42;14.43;;;8.82;;
80930;SDS011;70388;42.698;23.324;2024-02-14T12:28:13;10.90;;;8.45;;
80930;SDS011;70388;42.698;23.324;2024-02-14T12:30:46;13.00;;;8.45;;
80930;SDS011;70388;42.698;23.324;2024-02-14T12:33:21;16.65;;;8.75;;
80930;SDS011;70388;42.698;23.324;2024-02-14T12:35:51;12.65;;;8.23;;
80930;SDS011;70388;42.698;23.324;2024-02-14T12:38:19;15.70;;;12.18;;
80930;SDS011;70388;42.698;23.324;2024-02-14T12:40:46;18.08;;;11.85;;
80930;SDS011;70388;42.698;23.324;2024-02-14T12:43:12;10.32;;;6.68;;
80930;SDS011;70388;42.698;23.324;2024-02-14T12:45:39;13.88;;;7.60;;
80930;SDS011;70388;42.698;23.324;2024-02-14T12:48:10;15.30;;;8.48;;
80930;SDS011;70388;42.698;23.324;2024-02-14T12:50:38;16.55;;;9.20;;
80930;SDS011;70388;42.698;23.324;2024-02-14T12:53:05;14.93;;;9.05;;
80930;SDS011;70388;42.698;23.324;2024-02-14T12:55:31;16.35;;;8.90;;
80930;SDS011;70388;42.698;23.324;2024-02-14T12:57:58;16.58;;;8.60;;
80930;SDS011;70388;42.698;23.324;2024-02-14T13:00:24;16.02;;;9.45;;
80930;SDS011;70388;42.698;23.324;2024-02-14T13:02:50;14.27;;;9.60;;
80930;SDS011;70388;42.698;23.324;2024-02-14T13:05:17;13.98;;;8.90;;
80930;SDS011;70388;42.698;23.324;2024-02-14T13:07:43;14.13;;;9.25;;
80930;SDS011;70388;42.698;23.324;2024-02-14T13:10:09;19.77;;;9.93;;
80930;SDS011;70388;42.698;23.324;2024-02-14T13:12:35;12.23;;;8.27;;
80930;SDS011;70388;42.698;23.324;2024-02-14T13:15:05;14.02;;;7.95;;
80930;SDS011;70388;42.698;23.324;2024-02-14T13:17:31;14.00;;;8.65;;
80930;SDS011;70388;42.698;23.324;2024-02-14T13:19:57;22.35;;;9.48;;
80930;SDS011;70388;42.698;23.324;2024-02-14T13:22:24;14.90;;;9.73;;
80930;SDS011;70388;42.698;23.324;2024-02-14T13:24:51;13.70;;;9.18;;
80930;SDS011;70388;42.698;23.324;2024-02-14T13:27:17;16.25;;;10.20;;
80930;SDS011;70388;42.698;23.324;2024-02-14T13:29:42;18.15;;;11.05;;
80930;SDS011;70388;42.698;23.324;2024-02-14T13:32:08;18.90;;;11.63;;
80930;SDS011;70388;42.698;23.324;2024-02-14T13:34:34;13.40;;;8.60;;
80930;SDS011;70388;42.698;23.324;2024-02-14T13:37:00;16.73;;;8.20;;
80930;SDS011;70388;42.698;23.324;2024-02-14T13:39:27;12.77;;;7.97;;
80930;SDS011;70388;42.698;23.324;2024-02-14T13:41:53;12.68;;;7.95;;
80930;SDS011;70388;42.698;23.324;2024-02-14T13:44:20;14.55;;;8.40;;
80930;SDS011;70388;42.698;23.324;2024-02-14T13:46:46;16.35;;;9.18;;
80930;SDS011;70388;42.698;23.324;2024-02-14T13:49:12;13.93;;;9.32;;
80930;SDS011;70388;42.698;23.324;2024-02-14T13:51:42;13.80;;;8.38;;
80930;SDS011;70388;42.698;23.324;2024-02-14T13:54:08;17.17;;;8.98;;
80930;SDS011;70388;42.698;23.324;2024-02-14T13:56:35;17.75;;;9.55;;
80930;SDS011;70388;42.698;23.324;2024-02-14T13:59:01;16.38;;;9.65;;
80930;SDS011;70388;42.698;23.324;2024-02-14T14:01:27;16.75;;;10.07;;
80930;SDS011;70388;42.698;23.324;2024-02-14T14:03:53;11.93;;;7.20;;
80930;SDS011;70388;42.698;23.324;2024-02-14T14:06:20;13.05;;;8.32;;
80930;SDS011;70388;42.698;23.324;2024-02-14T14:08:49;18.40;;;9.65;;
80930;SDS011;70388;42.698;23.324;2024-02-14T14:11:15;15.10;;;9.20;;
80930;SDS011;70388;42.698;23.324;2024-02-14T14:13:41;11.05;;;8.32;;
80930;SDS011;70388;42.698;23.324;2024-02-14T14:16:07;13.70;;;8.90;;
80930;SDS011;70388;42.698;23.324;2024-02-14T14:18:33;18.02;;;9.32;;
80930;SDS011;70388;42.698;23.324;2024-02-14T14:21:00;12.27;;;8.50;;
80930;SDS011;70388;42.698;23.324;2024-02-14T14:23:26;17.20;;;8.93;;
80930;SDS011;70388;42.698;23.324;2024-02-14T14:25:52;15.75;;;8.77;;